Time;durP1;ratioP1;P1;durP2;ratioP2;P2;SDS_P1;SDS_P2;PMS_P1;PMS_P2;Temp;Humidity;BMP_temperature;BMP_pressure;BME280_temperature;BME280_humidity;BME280_pressure;Samples;Min_cycle;Max_cycle;Signal;HPM_P1;HPM_P2
2022/05/05 00:02:04;;;;;;;8.00;4.10;;;10.90;99.90;;;;;;5047042;28;20219;-78
2022/05/05 00:04:29;;;;;;;8.27;4.17;;;10.90;99.90;;;;;;5032499;28;20198;-78
2022/05/05 00:06:55;;;;;;;5.80;4.00;;;10.90;99.90;;;;;;5046933;28;20298;-79
2022/05/05 00:09:20;;;;;;;5.13;3.87;;;10.80;99.90;;;;;;5032265;28;20195;-79
2022/05/05 00:14:33;;;;;;;7.00;4.00;;;10.90;99.90;;;;;;5033004;28;20598;-78
2022/05/05 00:17:01;;;;;;;5.30;3.53;;;10.80;99.90;;;;;;5031908;28;20191;-79
2022/05/05 00:19:29;;;;;;;7.47;3.80;;;10.70;99.90;;;;;;5047401;28;20185;-79
2022/05/05 00:21:55;;;;;;;5.30;3.93;;;10.70;99.90;;;;;;5032180;28;20408;-79
2022/05/05 00:24:21;;;;;;;5.83;3.60;;;10.60;99.90;;;;;;5047366;28;20198;-78
2022/05/05 00:26:47;;;;;;;7.13;3.70;;;10.50;99.90;;;;;;5030898;28;20216;-80
2022/05/05 00:29:13;;;;;;;4.03;3.30;;;10.40;99.90;;;;;;5044361;28;20685;-80
2022/05/05 00:31:39;;;;;;;4.27;3.43;;;10.40;99.90;;;;;;5043076;28;20201;-80
2022/05/05 00:34:05;;;;;;;5.13;3.47;;;10.30;99.90;;;;;;5043268;28;20182;-81
2022/05/05 00:36:31;;;;;;;6.93;3.40;;;10.30;99.90;;;;;;5027525;28;20289;-81
2022/05/05 00:38:56;;;;;;;4.90;3.40;;;10.20;99.90;;;;;;5043122;28;20641;-82
2022/05/05 00:41:22;;;;;;;5.37;3.70;;;10.20;99.90;;;;;;5043152;28;20187;-82
2022/05/05 00:43:48;;;;;;;5.93;3.87;;;10.30;99.90;;;;;;5028598;28;20240;-82
2022/05/05 00:46:13;;;;;;;6.83;4.03;;;10.20;99.90;;;;;;5027972;28;20241;-81
2022/05/05 00:48:43;;;;;;;5.13;3.77;;;10.20;99.90;;;;;;5043488;28;20246;-82
2022/05/05 00:51:10;;;;;;;6.37;3.80;;;10.10;99.90;;;;;;5043262;28;20265;-82
2022/05/05 00:53:35;;;;;;;6.03;4.17;;;10.00;99.90;;;;;;5042654;28;21075;-82
2022/05/05 00:56:10;;;;;;;8.17;4.80;;;9.70;99.90;;;;;;5042561;28;20274;-82
2022/05/05 00:58:36;;;;;;;5.53;4.17;;;9.60;99.90;;;;;;5042421;28;20197;-80
2022/05/05 01:01:04;;;;;;;6.33;4.03;;;9.50;99.90;;;;;;5024684;28;20273;-81
2022/05/05 01:03:34;;;;;;;6.70;4.00;;;9.40;99.90;;;;;;5040691;28;20921;-80
2022/05/05 01:06:00;;;;;;;5.60;4.03;;;9.30;99.90;;;;;;5040590;28;20214;-82
2022/05/05 01:08:26;;;;;;;5.17;4.23;;;9.40;99.90;;;;;;5027233;28;20176;-82
2022/05/05 01:10:52;;;;;;;5.93;4.17;;;9.60;99.90;;;;;;5026981;28;20653;-82
2022/05/05 01:13:17;;;;;;;5.93;4.10;;;9.60;99.90;;;;;;5043217;28;20217;-82
2022/05/05 01:15:43;;;;;;;4.40;4.00;;;9.60;99.90;;;;;;5042631;28;20278;-82
2022/05/05 01:18:09;;;;;;;6.40;4.60;;;9.60;99.90;;;;;;5026689;28;20190;-82
2022/05/05 01:20:44;;;;;;;5.60;4.70;;;9.60;99.90;;;;;;5042234;28;20191;-81
2022/05/05 01:23:10;;;;;;;6.87;3.90;;;9.50;99.90;;;;;;5042134;28;20210;-82
2022/05/05 01:28:20;;;;;;;6.53;4.03;;;9.50;99.90;;;;;;5026869;28;20193;-82
2022/05/05 01:30:48;;;;;;;6.10;3.90;;;9.50;99.90;;;;;;5041704;28;20278;-81
2022/05/05 01:33:19;;;;;;;4.80;4.07;;;9.60;99.90;;;;;;5042024;28;20206;-81
2022/05/05 01:35:46;;;;;;;8.23;4.50;;;9.60;99.90;;;;;;5041777;28;20614;-82
2022/05/05 01:38:18;;;;;;;4.93;4.10;;;9.70;99.90;;;;;;5041374;28;20178;-82
2022/05/05 01:40:46;;;;;;;5.30;3.90;;;9.70;99.90;;;;;;5026355;28;20273;-81
2022/05/05 01:43:13;;;;;;;6.50;4.73;;;9.90;99.90;;;;;;5027066;28;20280;-82
2022/05/05 01:45:38;;;;;;;6.70;4.27;;;9.80;99.90;;;;;;5041603;28;20221;-82
2022/05/05 01:48:04;;;;;;;4.83;3.90;;;9.70;99.90;;;;;;5042135;28;20183;-82
2022/05/05 01:50:31;;;;;;;6.87;4.00;;;9.60;99.90;;;;;;5027018;28;20191;-82
2022/05/05 01:52:57;;;;;;;7.60;4.60;;;9.60;99.90;;;;;;5042259;28;20216;-82
2022/05/05 01:55:23;;;;;;;5.20;3.80;;;9.60;99.90;;;;;;5041881;28;20248;-83
2022/05/05 01:57:49;;;;;;;6.17;4.10;;;9.70;99.90;;;;;;5044254;28;20285;-83
2022/05/05 02:00:16;;;;;;;5.33;3.83;;;9.60;99.90;;;;;;5029575;28;20229;-81
2022/05/05 02:02:43;;;;;;;5.90;4.00;;;9.70;99.90;;;;;;5043297;28;20211;-82
2022/05/05 02:05:09;;;;;;;6.43;4.43;;;9.80;99.90;;;;;;5044253;28;20344;-82
2022/05/05 02:07:35;;;;;;;6.10;4.20;;;9.80;99.90;;;;;;5047640;28;20190;-79
2022/05/05 02:10:02;;;;;;;5.37;4.03;;;9.80;99.90;;;;;;5046843;28;20186;-81
2022/05/05 02:12:32;;;;;;;4.00;3.60;;;9.70;99.90;;;;;;5032870;28;20237;-81
2022/05/05 02:14:57;;;;;;;5.80;4.30;;;9.80;99.90;;;;;;5032262;28;20541;-81
2022/05/05 02:17:23;;;;;;;6.37;4.10;;;9.80;99.90;;;;;;5032884;28;20201;-82
2022/05/05 02:19:49;;;;;;;5.00;3.57;;;9.80;99.90;;;;;;5047326;28;20202;-80
2022/05/05 02:22:15;;;;;;;6.60;3.90;;;9.80;99.90;;;;;;5047962;28;20222;-82
2022/05/05 02:24:41;;;;;;;5.83;4.03;;;9.80;99.90;;;;;;5048069;28;20253;-82
2022/05/05 02:27:08;;;;;;;4.60;3.73;;;9.80;99.90;;;;;;5032889;28;20210;-81
2022/05/05 02:29:34;;;;;;;7.03;3.93;;;9.90;99.90;;;;;;5033435;28;20182;-82
2022/05/05 02:31:59;;;;;;;5.10;3.40;;;9.80;99.90;;;;;;5032833;28;20207;-80
2022/05/05 02:34:25;;;;;;;5.10;4.03;;;9.80;99.90;;;;;;5048593;28;20825;-82
2022/05/05 02:39:34;;;;;;;4.67;3.77;;;9.70;99.90;;;;;;5033100;28;20201;-82
2022/05/05 02:42:00;;;;;;;5.27;3.60;;;9.80;99.90;;;;;;5032679;28;20211;-82
2022/05/05 02:44:26;;;;;;;6.13;3.90;;;9.70;99.90;;;;;;5047591;28;20236;-82
2022/05/05 02:46:52;;;;;;;5.60;3.73;;;9.70;99.90;;;;;;5031797;28;20209;-82
2022/05/05 02:49:17;;;;;;;4.83;3.80;;;9.70;99.90;;;;;;5032674;28;20198;-82
2022/05/05 02:51:43;;;;;;;6.53;4.10;;;9.60;99.90;;;;;;5030393;28;20199;-80
2022/05/05 02:56:53;;;;;;;4.17;3.63;;;9.60;99.90;;;;;;5030000;28;20225;-81
2022/05/05 02:59:19;;;;;;;5.40;3.67;;;9.60;99.90;;;;;;5030393;28;20652;-82
2022/05/05 03:01:45;;;;;;;7.17;4.47;;;9.60;99.90;;;;;;5045654;28;20226;-79
2022/05/05 03:04:10;;;;;;;6.27;3.70;;;9.60;99.90;;;;;;5045572;28;20266;-81
2022/05/05 03:06:36;;;;;;;4.93;3.83;;;9.50;99.90;;;;;;5030209;28;20207;-82
2022/05/05 03:09:02;;;;;;;6.00;4.13;;;9.50;99.90;;;;;;5046389;28;20187;-82
2022/05/05 03:11:28;;;;;;;7.30;3.70;;;9.50;99.90;;;;;;5044034;28;20652;-82
2022/05/05 03:13:53;;;;;;;6.57;4.30;;;9.40;99.90;;;;;;5043977;28;21081;-82
2022/05/05 03:16:19;;;;;;;6.57;4.13;;;9.20;99.90;;;;;;5043807;28;20572;-81
2022/05/05 03:18:44;;;;;;;6.17;4.67;;;9.20;99.90;;;;;;5027864;28;20191;-82
2022/05/05 03:21:10;;;;;;;6.37;4.13;;;9.10;99.90;;;;;;5029714;28;20179;-81
2022/05/05 03:23:36;;;;;;;6.80;4.20;;;9.00;99.90;;;;;;5044063;28;20183;-82
2022/05/05 03:26:02;;;;;;;5.03;3.83;;;8.80;99.90;;;;;;5043769;28;20296;-81
2022/05/05 03:28:27;;;;;;;6.53;4.00;;;8.80;99.90;;;;;;5043288;28;20368;-81
2022/05/05 03:30:53;;;;;;;4.97;3.70;;;8.70;99.90;;;;;;5044075;28;20194;-81
2022/05/05 03:33:19;;;;;;;5.23;3.80;;;8.50;99.90;;;;;;5027228;28;20246;-82
2022/05/05 03:35:44;;;;;;;6.33;3.80;;;8.50;99.90;;;;;;5043746;28;20202;-80
2022/05/05 03:38:10;;;;;;;4.47;3.30;;;8.40;99.90;;;;;;5042815;28;20186;-81
2022/05/05 03:40:35;;;;;;;4.77;4.00;;;8.40;99.90;;;;;;5043788;28;20210;-82
2022/05/05 03:43:01;;;;;;;5.50;3.70;;;8.40;99.90;;;;;;5027834;28;20221;-82
2022/05/05 03:45:27;;;;;;;5.83;4.07;;;8.30;99.90;;;;;;5027998;28;20272;-82
2022/05/05 03:47:52;;;;;;;4.23;3.50;;;8.20;99.90;;;;;;5025251;28;20194;-81
2022/05/05 03:50:18;;;;;;;6.13;3.67;;;8.10;99.90;;;;;;5025791;28;20266;-82
2022/05/05 03:52:43;;;;;;;5.97;3.40;;;8.10;99.90;;;;;;5040650;28;20231;-81
2022/05/05 03:55:09;;;;;;;7.20;3.73;;;8.00;99.90;;;;;;5026036;28;20190;-81
2022/05/05 03:57:34;;;;;;;5.53;3.60;;;8.00;99.90;;;;;;5025577;28;21399;-81
2022/05/05 04:00:00;;;;;;;5.00;3.60;;;7.90;99.90;;;;;;5039908;28;20179;-81
2022/05/05 04:02:26;;;;;;;6.33;3.67;;;7.80;99.90;;;;;;5039292;28;20614;-80
2022/05/05 04:04:51;;;;;;;8.37;3.90;;;7.80;99.90;;;;;;5039063;28;20190;-81
2022/05/05 04:07:17;;;;;;;4.33;3.27;;;7.80;99.90;;;;;;5038991;28;20206;-80
2022/05/05 04:09:42;;;;;;;6.73;3.83;;;7.80;99.90;;;;;;5023970;28;20570;-81
2022/05/05 04:12:09;;;;;;;4.93;4.20;;;7.70;99.90;;;;;;5039082;28;20233;-81
2022/05/05 04:14:34;;;;;;;4.27;3.57;;;7.70;99.90;;;;;;5024447;28;20201;-81
2022/05/05 04:17:00;;;;;;;5.20;3.60;;;7.70;99.90;;;;;;5038949;28;20195;-80
2022/05/05 04:19:27;;;;;;;4.90;3.93;;;7.90;99.90;;;;;;5038952;28;20612;-80
2022/05/05 04:21:52;;;;;;;5.43;3.57;;;7.80;99.90;;;;;;5038956;28;20277;-81
2022/05/05 04:24:18;;;;;;;6.27;3.77;;;7.90;99.90;;;;;;5030413;28;20190;-82
2022/05/05 04:26:45;;;;;;;4.57;3.27;;;7.90;99.90;;;;;;5038516;28;20221;-81
2022/05/05 04:29:10;;;;;;;5.60;3.47;;;7.80;99.90;;;;;;5038885;28;20198;-81
2022/05/05 04:31:36;;;;;;;4.70;3.40;;;7.80;99.90;;;;;;5040473;28;20607;-81
2022/05/05 04:34:03;;;;;;;5.77;3.83;;;7.90;99.90;;;;;;5040380;28;20210;-81
2022/05/05 04:36:34;;;;;;;4.47;3.57;;;7.90;99.90;;;;;;5040149;28;20202;-82
2022/05/05 04:39:19;;;;;;;8.07;4.27;;;7.80;99.90;;;;;;5039883;28;20194;-81
2022/05/05 04:41:44;;;;;;;5.90;3.73;;;7.80;99.90;;;;;;5041420;28;20592;-81
2022/05/05 04:44:10;;;;;;;7.43;4.00;;;7.80;99.90;;;;;;5026526;28;20202;-81
2022/05/05 04:46:35;;;;;;;5.27;3.70;;;8.10;99.90;;;;;;5039579;28;20237;-82
2022/05/05 04:49:01;;;;;;;5.13;3.87;;;8.30;99.90;;;;;;5039824;28;20572;-82
2022/05/05 04:51:27;;;;;;;4.97;3.80;;;8.60;99.90;;;;;;5039923;28;20237;-80
2022/05/05 04:53:52;;;;;;;5.60;3.90;;;8.90;99.90;;;;;;5039341;28;20194;-81
2022/05/05 04:56:18;;;;;;;3.50;3.20;;;9.30;99.90;;;;;;5025112;28;20191;-82
2022/05/05 04:58:43;;;;;;;4.63;3.30;;;9.90;99.90;;;;;;5024272;28;20195;-81
2022/05/05 05:01:09;;;;;;;4.33;3.10;;;10.70;99.90;;;;;;5025111;28;20277;-82
2022/05/05 05:03:39;;;;;;;4.28;2.95;;;11.40;99.90;;;;;;5039421;28;20193;-82
2022/05/05 05:06:07;;;;;;;3.50;2.58;;;12.50;99.90;;;;;;5024718;28;20413;-82
2022/05/05 05:08:34;;;;;;;4.57;2.88;;;13.10;99.90;;;;;;5039199;28;20178;-81
2022/05/05 05:10:59;;;;;;;4.43;3.00;;;13.50;99.90;;;;;;5037183;28;20209;-82
2022/05/05 05:13:26;;;;;;;3.33;2.97;;;13.40;99.90;;;;;;5038846;28;20649;-82
2022/05/05 05:15:51;;;;;;;4.57;2.80;;;13.30;99.90;;;;;;5024055;28;20205;-83
2022/05/05 05:18:17;;;;;;;4.07;2.65;;;13.50;99.90;;;;;;5023403;28;20654;-81
2022/05/05 05:20:43;;;;;;;4.25;3.05;;;13.70;99.90;;;;;;5039373;28;20189;-82
2022/05/05 05:23:09;;;;;;;6.57;3.30;;;13.90;99.90;;;;;;5039561;28;20631;-82
2022/05/05 05:25:35;;;;;;;4.63;2.90;;;14.20;99.90;;;;;;5023769;28;20218;-80
2022/05/05 05:28:01;;;;;;;4.85;3.05;;;14.50;99.90;;;;;;5038667;28;20183;-83
2022/05/05 05:30:26;;;;;;;5.25;3.00;;;14.60;99.90;;;;;;5024530;28;20191;-81
2022/05/05 05:32:52;;;;;;;4.40;2.55;;;14.90;99.90;;;;;;5039888;28;20302;-82
2022/05/05 05:35:18;;;;;;;3.85;2.50;;;14.90;99.90;;;;;;5035717;28;20716;-82
2022/05/05 05:37:43;;;;;;;3.83;3.22;;;15.10;99.90;;;;;;5024647;28;20194;-83
2022/05/05 05:40:10;;;;;;;6.13;3.03;;;15.50;99.90;;;;;;5040349;28;20179;-81
2022/05/05 05:42:35;;;;;;;6.40;3.17;;;15.60;99.90;;;;;;5029150;28;20229;-82
2022/05/05 05:45:01;;;;;;;4.82;2.85;;;15.60;99.90;;;;;;5044885;28;20194;-82
2022/05/05 05:47:27;;;;;;;3.95;2.67;;;15.80;99.90;;;;;;5028091;28;20215;-82
2022/05/05 05:49:53;;;;;;;3.65;2.65;;;16.30;99.90;;;;;;5028765;28;20662;-83
2022/05/05 05:52:18;;;;;;;3.33;2.40;;;16.30;99.90;;;;;;5043770;28;20206;-81
2022/05/05 05:54:44;;;;;;;4.78;2.90;;;16.10;99.90;;;;;;5028504;28;20272;-82
2022/05/05 05:57:10;;;;;;;4.07;2.90;;;16.30;99.90;;;;;;5027884;28;20505;-82
2022/05/05 05:59:36;;;;;;;5.35;2.72;;;16.30;99.90;;;;;;5043821;28;20182;-82
2022/05/05 06:04:45;;;;;;;4.43;2.45;;;16.80;99.90;;;;;;5028450;28;20194;-81
2022/05/05 06:07:11;;;;;;;3.33;2.20;;;17.20;99.90;;;;;;5043831;28;20215;-82
2022/05/05 06:09:37;;;;;;;3.50;1.88;;;17.10;99.90;;;;;;5044619;28;20261;-82
2022/05/05 06:12:03;;;;;;;3.65;1.95;;;16.90;99.90;;;;;;5029107;28;20306;-82
2022/05/05 06:14:30;;;;;;;7.40;1.98;;;17.40;99.30;;;;;;5029025;28;20241;-82
2022/05/05 06:16:55;;;;;;;3.63;1.95;;;17.00;98.10;;;;;;5029022;28;20261;-82
2022/05/05 06:19:21;;;;;;;4.35;2.25;;;16.40;99.60;;;;;;5027070;28;20250;-82
2022/05/05 06:21:47;;;;;;;3.58;2.30;;;16.40;99.90;;;;;;5031357;28;20695;-81
2022/05/05 06:24:12;;;;;;;4.10;1.77;;;17.00;99.90;;;;;;5030037;28;20564;-82
2022/05/05 06:26:38;;;;;;;6.18;2.20;;;17.20;99.80;;;;;;5030091;28;20724;-80
2022/05/05 06:29:04;;;;;;;3.47;2.08;;;17.00;98.80;;;;;;5045515;28;20194;-81
2022/05/05 06:31:30;;;;;;;3.45;2.20;;;17.00;99.00;;;;;;5043812;28;20214;-81
2022/05/05 06:33:56;;;;;;;2.92;2.00;;;16.70;99.40;;;;;;5030053;28;20438;-83
2022/05/05 06:36:21;;;;;;;4.47;2.20;;;16.30;99.70;;;;;;5045637;28;20314;-81
2022/05/05 06:38:50;;;;;;;3.03;2.20;;;15.80;99.90;;;;;;5044211;28;20191;-83
2022/05/05 06:41:15;;;;;;;2.83;2.55;;;15.40;99.90;;;;;;5041991;28;20193;-81
2022/05/05 06:43:41;;;;;;;5.47;3.03;;;14.60;99.90;;;;;;5021109;28;20536;-81
2022/05/05 06:46:07;;;;;;;5.45;3.40;;;14.00;99.90;;;;;;5042297;28;20726;-83
2022/05/05 06:48:33;;;;;;;8.95;2.95;;;13.70;99.90;;;;;;5026601;28;20189;-83
2022/05/05 06:50:58;;;;;;;4.78;3.03;;;13.70;99.90;;;;;;5028843;28;20191;-86
2022/05/05 06:53:24;;;;;;;4.45;2.75;;;13.80;99.90;;;;;;5042484;28;20206;-83
2022/05/05 06:55:49;;;;;;;9.40;3.25;;;13.80;99.90;;;;;;5043701;28;20218;-85
2022/05/05 06:58:15;;;;;;;5.45;2.67;;;13.70;99.90;;;;;;5041973;28;20560;-84
2022/05/05 07:03:25;;;;;;;5.70;2.90;;;13.60;99.90;;;;;;5029431;28;20766;-86
2022/05/05 07:05:52;;;;;;;3.75;2.72;;;13.80;99.90;;;;;;5044543;28;20211;-85
2022/05/05 07:08:18;;;;;;;5.15;2.50;;;13.80;99.90;;;;;;5029822;28;20675;-83
2022/05/05 07:10:52;;;;;;;4.30;2.70;;;13.80;99.90;;;;;;5044148;28;20278;-84
2022/05/05 07:13:18;;;;;;;6.35;3.03;;;13.70;99.90;;;;;;5041912;28;20233;-84
2022/05/05 07:15:44;;;;;;;5.00;2.70;;;14.00;99.90;;;;;;5040349;28;20436;-85
2022/05/05 07:18:10;;;;;;;3.92;2.50;;;14.20;99.90;;;;;;5040193;28;20305;-83
2022/05/05 07:20:35;;;;;;;5.32;2.85;;;14.10;99.90;;;;;;5041480;28;20676;-83
2022/05/05 07:23:01;;;;;;;4.93;2.85;;;14.00;99.90;;;;;;5042078;28;20207;-84
2022/05/05 07:25:27;;;;;;;5.80;2.80;;;13.90;99.90;;;;;;5025132;28;20191;-83
2022/05/05 07:27:53;;;;;;;5.07;2.83;;;13.70;99.90;;;;;;5040973;28;20453;-83
2022/05/05 07:30:19;;;;;;;4.45;2.58;;;13.70;99.90;;;;;;5041046;28;20539;-83
2022/05/05 07:32:45;;;;;;;5.28;2.95;;;14.10;99.90;;;;;;5042066;28;20693;-83
2022/05/05 07:35:11;;;;;;;3.70;2.78;;;14.00;99.90;;;;;;5042144;28;20183;-84
2022/05/05 07:37:38;;;;;;;6.63;3.30;;;13.90;99.90;;;;;;5040954;28;20282;-80
2022/05/05 07:40:05;;;;;;;5.40;3.22;;;14.00;99.90;;;;;;5042002;28;20178;-83
2022/05/05 07:42:30;;;;;;;6.43;3.13;;;14.30;99.90;;;;;;5026527;28;20206;-84
2022/05/05 07:44:56;;;;;;;6.65;3.17;;;14.70;99.90;;;;;;5041828;28;20198;-83
2022/05/05 07:47:22;;;;;;;6.47;3.50;;;15.00;99.90;;;;;;5041002;28;20211;-83
2022/05/05 07:49:47;;;;;;;5.00;3.70;;;14.90;99.90;;;;;;5043891;28;20277;-83
2022/05/05 07:52:13;;;;;;;5.57;3.42;;;14.80;99.90;;;;;;5044209;28;20225;-85
2022/05/05 07:54:42;;;;;;;4.85;3.20;;;14.80;99.90;;;;;;5043825;28;20191;-85
2022/05/05 07:57:08;;;;;;;4.18;3.15;;;14.60;99.90;;;;;;5042511;28;20660;-83
2022/05/05 07:59:34;;;;;;;6.45;3.45;;;14.70;99.90;;;;;;5028658;28;20195;-83
2022/05/05 08:02:00;;;;;;;11.20;4.88;;;14.60;99.90;;;;;;5027101;28;20383;-83
2022/05/05 08:04:26;;;;;;;8.13;3.67;;;14.90;99.90;;;;;;5042437;28;20189;-83
2022/05/05 08:06:52;;;;;;;5.80;3.08;;;15.10;99.90;;;;;;5027250;28;20202;-84
2022/05/05 08:09:18;;;;;;;4.95;3.38;;;15.10;99.90;;;;;;5040473;28;20194;-84
2022/05/05 08:11:44;;;;;;;13.75;4.70;;;15.40;99.90;;;;;;5039899;28;20214;-85
2022/05/05 08:14:10;;;;;;;6.03;3.78;;;15.40;99.90;;;;;;5042006;28;20195;-84
2022/05/05 08:16:36;;;;;;;6.72;3.65;;;15.00;99.90;;;;;;5028069;28;20191;-85
2022/05/05 08:19:01;;;;;;;5.45;3.40;;;15.30;99.90;;;;;;5041889;28;20232;-84
2022/05/05 08:21:50;;;;;;;5.32;3.80;;;15.50;99.90;;;;;;5047995;28;20210;-84
2022/05/05 08:29:44;;;;;;;6.70;3.85;;;15.90;99.90;;;;;;5029276;28;20186;-83
2022/05/05 08:32:10;;;;;;;5.07;3.78;;;15.90;99.90;;;;;;5043638;28;20206;-82
2022/05/05 08:34:36;;;;;;;8.07;3.85;;;15.90;99.90;;;;;;5042821;28;20182;-84
2022/05/05 08:37:02;;;;;;;5.15;4.18;;;16.00;99.90;;;;;;5042836;28;20175;-84
2022/05/05 08:39:28;;;;;;;5.45;3.17;;;15.90;99.90;;;;;;5043119;28;20193;-84
2022/05/05 08:41:55;;;;;;;4.80;3.40;;;15.90;99.90;;;;;;5028270;28;20225;-84
2022/05/05 08:44:20;;;;;;;6.80;3.42;;;15.80;99.90;;;;;;5040243;28;20186;-85
2022/05/05 08:46:48;;;;;;;5.82;4.10;;;16.00;99.90;;;;;;5040798;28;20213;-85
2022/05/05 08:49:17;;;;;;;8.02;3.58;;;15.90;99.90;;;;;;5041005;28;20246;-84
2022/05/05 08:51:45;;;;;;;8.38;4.38;;;16.00;99.90;;;;;;5040738;28;20578;-84
2022/05/05 08:54:21;;;;;;;8.80;3.85;;;16.00;99.90;;;;;;5040228;28;20298;-85
2022/05/05 08:56:48;;;;;;;4.38;3.65;;;16.30;99.90;;;;;;5040836;28;20182;-85
2022/05/05 08:59:18;;;;;;;6.47;3.60;;;16.30;99.90;;;;;;5040144;28;20277;-83
2022/05/05 09:01:44;;;;;;;11.45;3.95;;;16.60;99.80;;;;;;5040897;28;20265;-83
2022/05/05 09:04:10;;;;;;;7.15;3.10;;;16.40;97.40;;;;;;5041232;28;20878;-83
2022/05/05 09:06:46;;;;;;;4.82;3.15;;;16.40;97.70;;;;;;5040367;28;20210;-85
2022/05/05 09:09:32;;;;;;;6.32;3.55;;;16.50;97.10;;;;;;5040094;28;20189;-83
2022/05/05 09:12:17;;;;;;;4.55;3.17;;;16.60;97.00;;;;;;5026023;28;20222;-85
2022/05/05 09:14:47;;;;;;;7.35;4.25;;;16.70;95.00;;;;;;5025731;28;20185;-84
2022/05/05 09:17:18;;;;;;;4.95;3.03;;;16.90;96.30;;;;;;5045719;28;20182;-84
2022/05/05 09:19:46;;;;;;;4.93;3.20;;;17.10;95.90;;;;;;5029850;28;20193;-84
2022/05/05 09:22:13;;;;;;;4.45;3.10;;;16.90;93.60;;;;;;5045107;28;20210;-85
2022/05/05 09:24:51;;;;;;;6.13;3.42;;;16.80;92.50;;;;;;5029630;28;20183;-83
2022/05/05 09:27:33;;;;;;;4.18;3.03;;;16.70;93.60;;;;;;5044243;28;20210;-84
2022/05/05 09:30:06;;;;;;;6.65;2.60;;;16.90;92.20;;;;;;5044829;28;20195;-83
2022/05/05 09:32:43;;;;;;;5.75;2.85;;;16.80;90.10;;;;;;5045087;28;20206;-83
2022/05/05 09:35:15;;;;;;;4.57;3.03;;;16.90;90.20;;;;;;5044631;28;20182;-85
2022/05/05 09:37:52;;;;;;;3.95;2.72;;;16.70;90.60;;;;;;5027759;28;20672;-85
2022/05/05 09:40:20;;;;;;;4.70;2.53;;;16.80;90.90;;;;;;5044239;28;20281;-83
2022/05/05 09:42:46;;;;;;;4.50;2.65;;;16.90;88.40;;;;;;5043623;28;21054;-83
2022/05/05 09:45:29;;;;;;;4.00;2.65;;;17.10;86.70;;;;;;5043497;28;20194;-83
2022/05/05 09:48:02;;;;;;;4.28;2.40;;;17.10;85.20;;;;;;5043987;28;20226;-84
2022/05/05 09:50:31;;;;;;;6.32;2.30;;;17.10;83.30;;;;;;5044078;28;20297;-83
2022/05/05 09:58:35;;;;;;;5.88;2.50;;;17.50;83.30;;;;;;5026824;28;20194;-82
2022/05/05 10:01:08;;;;;;;4.45;2.63;;;17.60;81.50;;;;;;5043311;28;20617;-83
2022/05/05 10:04:05;;;;;;;3.20;2.28;;;17.70;80.60;;;;;;5043161;28;20191;-83
2022/05/05 10:06:31;;;;;;;2.38;2.13;;;17.80;80.10;;;;;;5025697;28;21120;-82
2022/05/05 10:09:01;;;;;;;4.88;2.70;;;17.80;78.80;;;;;;5042757;28;20262;-82
2022/05/05 10:11:27;;;;;;;5.03;2.53;;;17.50;78.50;;;;;;5041417;28;20685;-83
2022/05/05 10:13:56;;;;;;;3.30;2.40;;;17.60;81.20;;;;;;5043701;28;20191;-82
2022/05/05 10:16:22;;;;;;;2.97;2.38;;;17.70;77.00;;;;;;5028469;28;20197;-82
2022/05/05 10:18:50;;;;;;;3.47;2.92;;;17.70;75.50;;;;;;5043948;28;20219;-80
2022/05/05 10:21:40;;;;;;;3.80;1.98;;;17.70;78.40;;;;;;5037810;28;20218;-83
2022/05/05 10:24:22;;;;;;;5.18;2.78;;;17.90;77.80;;;;;;5021497;28;20297;-83
2022/05/05 10:26:53;;;;;;;4.30;2.17;;;17.80;77.70;;;;;;5038524;28;20762;-83
2022/05/05 10:29:31;;;;;;;5.63;2.17;;;17.90;73.30;;;;;;5038824;28;20282;-82
2022/05/05 10:32:19;;;;;;;4.35;2.28;;;17.90;75.10;;;;;;5026193;28;20209;-81
2022/05/05 10:34:51;;;;;;;5.18;2.38;;;18.00;75.70;;;;;;5041034;28;20189;-82
2022/05/05 10:37:22;;;;;;;3.83;2.45;;;18.30;75.80;;;;;;5040397;28;20226;-82
2022/05/05 10:39:50;;;;;;;3.20;2.15;;;18.30;71.50;;;;;;5040767;28;20633;-84
2022/05/05 10:42:41;;;;;;;3.65;2.55;;;18.40;74.20;;;;;;5041065;28;20600;-86
2022/05/05 10:45:17;;;;;;;6.97;2.78;;;18.70;72.50;;;;;;5027498;28;20209;-86
2022/05/05 10:48:06;;;;;;;4.18;2.35;;;18.70;73.20;;;;;;5027521;28;20210;-84
2022/05/05 10:50:53;;;;;;;4.22;2.45;;;18.90;73.30;;;;;;5015531;28;20669;-88
2022/05/05 10:53:33;;;;;;;4.35;2.63;;;18.80;73.80;;;;;;5027063;28;20218;-84
2022/05/05 10:56:02;;;;;;;4.38;2.88;;;18.80;74.80;;;;;;5028852;28;20239;-83
2022/05/05 10:59:02;;;;;;;4.38;2.80;;;19.00;74.80;;;;;;5042161;28;20190;-87
2022/05/05 11:01:30;;;;;;;7.07;2.72;;;19.00;74.50;;;;;;5044142;28;20202;-87
2022/05/05 11:04:23;;;;;;;5.15;2.40;;;19.10;73.90;;;;;;5042609;28;20251;-84
2022/05/05 11:07:25;;;;;;;5.07;3.38;;;19.10;74.70;;;;;;5042626;28;20454;-82
2022/05/05 11:09:51;;;;;;;4.50;2.45;;;18.90;72.70;;;;;;5045206;28;20293;-83
2022/05/05 11:12:21;;;;;;;5.50;2.65;;;18.80;73.60;;;;;;5047270;28;20234;-82
2022/05/05 11:23:46;;;;;;;4.88;2.17;;;18.90;73.30;;;;;;5030620;28;20216;-82
2022/05/05 11:26:16;;;;;;;3.47;2.30;;;19.00;72.60;;;;;;5041874;28;20636;-85
2022/05/05 11:28:41;;;;;;;3.38;1.73;;;18.90;71.30;;;;;;5041550;28;20183;-87
2022/05/05 11:31:25;;;;;;;3.38;2.10;;;19.30;70.70;;;;;;5041924;28;20194;-87
2022/05/05 11:34:03;;;;;;;2.25;1.80;;;19.50;69.40;;;;;;5026650;28;20178;-84
2022/05/05 11:36:33;;;;;;;2.95;2.20;;;19.30;71.00;;;;;;5027001;28;20229;-82
2022/05/05 11:38:59;;;;;;;3.53;1.95;;;19.40;69.60;;;;;;5040851;28;20194;-83
2022/05/05 11:41:25;;;;;;;4.18;2.50;;;19.50;70.70;;;;;;5041775;28;20187;-84
2022/05/05 11:46:38;;;;;;;4.47;2.80;;;19.60;71.30;;;;;;5026999;28;20240;-82
2022/05/05 11:49:05;;;;;;;2.53;2.00;;;19.80;71.50;;;;;;5039860;28;20187;-84
2022/05/05 11:51:35;;;;;;;2.08;1.63;;;20.00;69.00;;;;;;5040840;28;20207;-82
2022/05/05 11:54:08;;;;;;;3.15;2.15;;;20.00;68.10;;;;;;5040859;28;20186;-84
2022/05/05 11:56:35;;;;;;;5.00;2.45;;;19.90;69.00;;;;;;5024800;28;20669;-84
2022/05/05 12:02:05;;;;;;;2.15;1.67;;;19.90;69.30;;;;;;5025854;28;20232;-83
2022/05/05 12:04:31;;;;;;;2.60;1.70;;;19.80;69.60;;;;;;5041014;28;20248;-86
2022/05/05 12:07:00;;;;;;;2.50;1.45;;;20.20;69.80;;;;;;5040535;28;20280;-86
2022/05/05 12:09:27;;;;;;;9.75;1.50;;;20.20;66.40;;;;;;5040733;28;20265;-86
2022/05/05 12:11:53;;;;;;;4.28;1.50;;;19.90;66.20;;;;;;5040543;28;20268;-87
2022/05/05 12:14:22;;;;;;;1.88;1.27;;;19.90;67.60;;;;;;5026122;28;20187;-86
2022/05/05 12:16:50;;;;;;;4.88;1.35;;;20.00;67.00;;;;;;5043076;28;20183;-81
2022/05/05 12:19:18;;;;;;;1.85;1.27;;;19.70;65.10;;;;;;5042536;28;20179;-86
2022/05/05 12:21:55;;;;;;;1.85;1.13;;;19.90;68.40;;;;;;5042541;28;20298;-84
2022/05/05 12:24:24;;;;;;;5.20;1.77;;;19.70;67.90;;;;;;5042339;28;20175;-84
2022/05/05 12:27:13;;;;;;;2.72;1.20;;;19.80;65.00;;;;;;5042066;28;20210;-84
2022/05/05 12:29:43;;;;;;;2.65;1.00;;;19.50;64.60;;;;;;5026474;28;20179;-85
2022/05/05 12:32:11;;;;;;;2.30;0.82;;;19.20;65.30;;;;;;5041544;28;20203;-85
2022/05/05 12:34:37;;;;;;;1.02;0.90;;;19.20;66.20;;;;;;5042381;28;20669;-84
2022/05/05 12:37:07;;;;;;;1.48;0.90;;;19.60;66.20;;;;;;5041745;28;20195;-85
2022/05/05 12:39:33;;;;;;;1.98;1.10;;;19.80;64.30;;;;;;5041197;28;20191;-86
2022/05/05 12:42:00;;;;;;;1.92;1.00;;;19.80;64.30;;;;;;5041717;28;20345;-85
2022/05/05 12:44:33;;;;;;;1.13;1.10;;;19.50;65.40;;;;;;5043513;28;20189;-86
2022/05/05 12:47:03;;;;;;;1.55;1.30;;;19.60;66.20;;;;;;5041315;28;20225;-86
2022/05/05 12:49:34;;;;;;;2.28;0.90;;;19.50;65.30;;;;;;5041076;28;21395;-86
2022/05/05 12:52:00;;;;;;;1.58;0.95;;;19.70;65.30;;;;;;5041084;28;20206;-87
2022/05/05 12:59:55;;;;;;;1.55;1.20;;;19.20;63.90;;;;;;5029505;28;20177;-84
2022/05/05 13:02:21;;;;;;;1.95;0.98;;;19.50;66.30;;;;;;5041333;28;20195;-86
2022/05/05 13:04:48;;;;;;;1.50;0.95;;;19.80;65.10;;;;;;5041204;28;20202;-85
2022/05/05 13:07:14;;;;;;;2.78;0.90;;;19.80;63.40;;;;;;5041375;28;20206;-85
2022/05/05 13:09:40;;;;;;;1.50;0.95;;;19.90;64.20;;;;;;5040554;28;20688;-83
2022/05/05 13:12:06;;;;;;;1.85;1.00;;;20.00;62.70;;;;;;5039182;28;20309;-84
2022/05/05 13:14:32;;;;;;;1.42;0.98;;;19.90;61.20;;;;;;5038518;28;20536;-84
2022/05/05 13:16:58;;;;;;;1.50;1.00;;;19.60;61.00;;;;;;5038273;28;20187;-85
2022/05/05 13:19:25;;;;;;;2.25;1.10;;;19.40;63.70;;;;;;5039825;28;20649;-86
2022/05/05 13:21:51;;;;;;;1.83;1.10;;;19.30;63.40;;;;;;5023637;28;20203;-85
2022/05/05 13:24:17;;;;;;;3.90;1.48;;;19.50;63.30;;;;;;5038551;28;20214;-85
2022/05/05 13:26:46;;;;;;;2.95;1.27;;;19.80;65.00;;;;;;5023233;28;20207;-85
2022/05/05 13:29:13;;;;;;;1.40;1.20;;;19.90;63.40;;;;;;5038341;28;20182;-87
2022/05/05 13:31:40;;;;;;;3.60;1.27;;;20.00;62.80;;;;;;5040397;28;20740;-83
2022/05/05 13:34:05;;;;;;;1.50;1.20;;;20.40;65.10;;;;;;5041319;28;20179;-86
2022/05/05 13:36:31;;;;;;;1.30;0.80;;;20.60;62.30;;;;;;5038156;28;20446;-85
2022/05/05 13:38:57;;;;;;;2.35;1.25;;;20.60;60.80;;;;;;5037966;28;20207;-86
2022/05/05 13:41:22;;;;;;;1.05;0.70;;;20.60;59.90;;;;;;5038423;28;20183;-86
2022/05/05 13:43:48;;;;;;;2.28;1.00;;;20.10;58.80;;;;;;5038306;28;20191;-86